sensor_id;sensor_type;location;lat;lon;timestamp;pressure;altitude;pressure_sealevel;temperature;humidity
28027;BME280;15344;52.342;-1.290;2023-03-14T00:02:23;97434.03;;;7.18;100.00
28027;BME280;15344;52.342;-1.290;2023-03-14T00:04:48;97441.17;;;7.23;100.00
28027;BME280;15344;52.342;-1.290;2023-03-14T00:07:14;97444.59;;;7.89;100.00
28027;BME280;15344;52.342;-1.290;2023-03-14T00:09:40;97453.51;;;8.23;100.00
28027;BME280;15344;52.342;-1.290;2023-03-14T00:12:06;97461.68;;;7.38;100.00
28027;BME280;15344;52.342;-1.290;2023-03-14T00:14:31;97466.69;;;8.43;100.00
28027;BME280;15344;52.342;-1.290;2023-03-14T00:16:56;97466.43;;;8.24;100.00
28027;BME280;15344;52.342;-1.290;2023-03-14T00:19:21;97479.17;;;7.12;100.00
28027;BME280;15344;52.342;-1.290;2023-03-14T00:21:47;97480.71;;;8.28;100.00
28027;BME280;15344;52.342;-1.290;2023-03-14T00:24:12;97493.02;;;8.03;100.00
28027;BME280;15344;52.342;-1.290;2023-03-14T00:26:37;97499.95;;;6.71;100.00
28027;BME280;15344;52.342;-1.290;2023-03-14T00:29:03;97509.03;;;6.68;100.00
28027;BME280;15344;52.342;-1.290;2023-03-14T00:31:29;97506.38;;;5.82;100.00
28027;BME280;15344;52.342;-1.290;2023-03-14T00:33:54;97518.00;;;6.88;100.00
28027;BME280;15344;52.342;-1.290;2023-03-14T00:36:20;97514.21;;;6.61;100.00
28027;BME280;15344;52.342;-1.290;2023-03-14T00:38:46;97524.10;;;7.33;100.00
28027;BME280;15344;52.342;-1.290;2023-03-14T00:41:13;97526.49;;;5.95;100.00
28027;BME280;15344;52.342;-1.290;2023-03-14T00:43:37;97524.89;;;6.32;100.00
28027;BME280;15344;52.342;-1.290;2023-03-14T00:46:02;97528.98;;;6.07;100.00
28027;BME280;15344;52.342;-1.290;2023-03-14T00:48:27;97543.73;;;6.67;100.00
28027;BME280;15344;52.342;-1.290;2023-03-14T00:50:53;97543.22;;;6.16;100.00
28027;BME280;15344;52.342;-1.290;2023-03-14T00:53:18;97548.75;;;7.13;100.00
28027;BME280;15344;52.342;-1.290;2023-03-14T00:55:44;97551.85;;;6.60;100.00
28027;BME280;15344;52.342;-1.290;2023-03-14T00:58:10;97559.37;;;6.16;100.00
28027;BME280;15344;52.342;-1.290;2023-03-14T01:00:35;97570.65;;;5.82;100.00
28027;BME280;15344;52.342;-1.290;2023-03-14T01:03:00;97575.95;;;6.68;100.00
28027;BME280;15344;52.342;-1.290;2023-03-14T01:05:25;97582.30;;;6.43;100.00
28027;BME280;15344;52.342;-1.290;2023-03-14T01:07:51;97588.38;;;6.59;100.00
28027;BME280;15344;52.342;-1.290;2023-03-14T01:10:17;97601.97;;;6.50;100.00
28027;BME280;15344;52.342;-1.290;2023-03-14T01:12:42;97612.93;;;5.44;100.00
28027;BME280;15344;52.342;-1.290;2023-03-14T01:15:08;97614.95;;;6.21;100.00
28027;BME280;15344;52.342;-1.290;2023-03-14T01:17:33;97619.23;;;6.49;100.00
28027;BME280;15344;52.342;-1.290;2023-03-14T01:19:59;97632.96;;;6.20;100.00
28027;BME280;15344;52.342;-1.290;2023-03-14T01:22:24;97636.14;;;7.25;100.00
28027;BME280;15344;52.342;-1.290;2023-03-14T01:24:50;97641.63;;;6.34;100.00
28027;BME280;15344;52.342;-1.290;2023-03-14T01:27:15;97645.49;;;6.90;100.00
28027;BME280;15344;52.342;-1.290;2023-03-14T01:29:41;97652.66;;;6.64;100.00
28027;BME280;15344;52.342;-1.290;2023-03-14T01:32:06;97658.72;;;6.96;100.00
28027;BME280;15344;52.342;-1.290;2023-03-14T01:34:32;97672.15;;;6.72;100.00
28027;BME280;15344;52.342;-1.290;2023-03-14T01:36:57;97680.21;;;6.63;100.00
28027;BME280;15344;52.342;-1.290;2023-03-14T01:39:23;97678.75;;;7.14;100.00
28027;BME280;15344;52.342;-1.290;2023-03-14T01:41:48;97683.45;;;7.12;100.00
28027;BME280;15344;52.342;-1.290;2023-03-14T01:44:14;97687.81;;;6.46;100.00
28027;BME280;15344;52.342;-1.290;2023-03-14T01:46:40;97690.40;;;7.03;100.00
28027;BME280;15344;52.342;-1.290;2023-03-14T01:49:11;97703.15;;;6.56;100.00
28027;BME280;15344;52.342;-1.290;2023-03-14T01:51:35;97704.13;;;6.59;100.00
28027;BME280;15344;52.342;-1.290;2023-03-14T01:54:02;97706.64;;;6.24;100.00
28027;BME280;15344;52.342;-1.290;2023-03-14T01:56:21;97712.81;;;6.43;100.00
28027;BME280;15344;52.342;-1.290;2023-03-14T01:58:49;97722.87;;;6.18;100.00
28027;BME280;15344;52.342;-1.290;2023-03-14T02:01:16;97728.79;;;7.35;100.00
28027;BME280;15344;52.342;-1.290;2023-03-14T02:03:44;97741.84;;;6.86;100.00
28027;BME280;15344;52.342;-1.290;2023-03-14T02:06:06;97748.03;;;6.81;100.00
28027;BME280;15344;52.342;-1.290;2023-03-14T02:08:30;97749.00;;;7.37;100.00
28027;BME280;15344;52.342;-1.290;2023-03-14T02:10:54;97763.20;;;6.13;100.00
28027;BME280;15344;52.342;-1.290;2023-03-14T02:13:21;97767.11;;;6.57;99.98
28027;BME280;15344;52.342;-1.290;2023-03-14T02:15:46;97770.23;;;6.70;99.95
28027;BME280;15344;52.342;-1.290;2023-03-14T02:18:13;97773.19;;;6.65;96.79
28027;BME280;15344;52.342;-1.290;2023-03-14T02:20:42;97777.51;;;6.93;98.49
28027;BME280;15344;52.342;-1.290;2023-03-14T02:23:02;97777.36;;;8.06;93.30
28027;BME280;15344;52.342;-1.290;2023-03-14T02:25:35;97781.69;;;6.55;95.62
28027;BME280;15344;52.342;-1.290;2023-03-14T02:27:53;97783.48;;;7.77;95.26
28027;BME280;15344;52.342;-1.290;2023-03-14T02:30:20;97792.19;;;7.56;93.34
28027;BME280;15344;52.342;-1.290;2023-03-14T02:32:47;97797.17;;;6.72;93.85
28027;BME280;15344;52.342;-1.290;2023-03-14T02:35:12;97800.14;;;7.26;93.10
28027;BME280;15344;52.342;-1.290;2023-03-14T02:37:39;97806.91;;;7.55;92.83
28027;BME280;15344;52.342;-1.290;2023-03-14T02:40:01;97810.88;;;7.46;92.86
28027;BME280;15344;52.342;-1.290;2023-03-14T02:42:26;97815.94;;;7.12;92.80
28027;BME280;15344;52.342;-1.290;2023-03-14T02:44:54;97811.89;;;7.24;91.02
28027;BME280;15344;52.342;-1.290;2023-03-14T02:47:20;97815.32;;;6.92;91.03
28027;BME280;15344;52.342;-1.290;2023-03-14T02:49:43;97820.39;;;6.76;92.58
28027;BME280;15344;52.342;-1.290;2023-03-14T02:52:09;97822.69;;;6.87;90.28
28027;BME280;15344;52.342;-1.290;2023-03-14T02:54:34;97832.33;;;6.91;93.27
28027;BME280;15344;52.342;-1.290;2023-03-14T02:56:59;97838.00;;;7.35;92.42
28027;BME280;15344;52.342;-1.290;2023-03-14T02:59:25;97836.65;;;7.41;92.22
28027;BME280;15344;52.342;-1.290;2023-03-14T03:01:50;97836.11;;;7.56;89.55
28027;BME280;15344;52.342;-1.290;2023-03-14T03:04:16;97837.65;;;5.63;92.76
28027;BME280;15344;52.342;-1.290;2023-03-14T03:06:41;97843.50;;;6.36;94.60
28027;BME280;15344;52.342;-1.290;2023-03-14T03:09:07;97845.16;;;6.76;93.41
28027;BME280;15344;52.342;-1.290;2023-03-14T03:11:32;97850.51;;;6.41;94.42
28027;BME280;15344;52.342;-1.290;2023-03-14T03:13:57;97852.43;;;6.72;93.69
28027;BME280;15344;52.342;-1.290;2023-03-14T03:16:23;97857.78;;;6.37;94.53
28027;BME280;15344;52.342;-1.290;2023-03-14T03:18:48;97858.67;;;6.25;96.10
28027;BME280;15344;52.342;-1.290;2023-03-14T03:21:14;97865.35;;;6.70;93.06
28027;BME280;15344;52.342;-1.290;2023-03-14T03:23:40;97873.91;;;6.91;92.55
28027;BME280;15344;52.342;-1.290;2023-03-14T03:26:06;97877.50;;;6.42;93.90
28027;BME280;15344;52.342;-1.290;2023-03-14T03:28:30;97888.18;;;6.79;91.75
28027;BME280;15344;52.342;-1.290;2023-03-14T03:30:56;97893.97;;;7.08;93.39
28027;BME280;15344;52.342;-1.290;2023-03-14T03:33:22;97901.30;;;6.97;92.79
28027;BME280;15344;52.342;-1.290;2023-03-14T03:35:49;97908.10;;;6.48;92.43
28027;BME280;15344;52.342;-1.290;2023-03-14T03:38:13;97913.39;;;6.08;92.71
28027;BME280;15344;52.342;-1.290;2023-03-14T03:40:38;97921.07;;;6.44;92.05
28027;BME280;15344;52.342;-1.290;2023-03-14T03:43:04;97929.80;;;7.43;90.67
28027;BME280;15344;52.342;-1.290;2023-03-14T03:45:29;97934.64;;;7.77;87.08
28027;BME280;15344;52.342;-1.290;2023-03-14T03:47:55;97932.40;;;6.48;91.13
28027;BME280;15344;52.342;-1.290;2023-03-14T03:50:20;97945.45;;;7.14;89.50
28027;BME280;15344;52.342;-1.290;2023-03-14T03:52:46;97947.99;;;6.45;88.85
28027;BME280;15344;52.342;-1.290;2023-03-14T03:55:11;97954.04;;;7.46;88.46
28027;BME280;15344;52.342;-1.290;2023-03-14T03:57:37;97958.66;;;7.61;85.87
28027;BME280;15344;52.342;-1.290;2023-03-14T04:00:03;97964.27;;;7.38;84.50
28027;BME280;15344;52.342;-1.290;2023-03-14T04:02:28;97971.83;;;8.15;81.76
28027;BME280;15344;52.342;-1.290;2023-03-14T04:04:53;97977.35;;;7.23;86.18
28027;BME280;15344;52.342;-1.290;2023-03-14T04:07:19;97983.41;;;6.61;88.36
28027;BME280;15344;52.342;-1.290;2023-03-14T04:09:44;97991.11;;;6.34;86.82
28027;BME280;15344;52.342;-1.290;2023-03-14T04:12:10;97997.32;;;6.77;90.01
28027;BME280;15344;52.342;-1.290;2023-03-14T04:14:35;98002.63;;;6.49;90.81
28027;BME280;15344;52.342;-1.290;2023-03-14T04:17:01;98011.98;;;6.18;91.79
28027;BME280;15344;52.342;-1.290;2023-03-14T04:19:26;98019.37;;;5.41;96.75
28027;BME280;15344;52.342;-1.290;2023-03-14T04:21:52;98024.89;;;5.83;95.32
28027;BME280;15344;52.342;-1.290;2023-03-14T04:24:17;98028.59;;;6.55;93.48
28027;BME280;15344;52.342;-1.290;2023-03-14T04:26:43;98038.19;;;5.75;95.45
28027;BME280;15344;52.342;-1.290;2023-03-14T04:29:08;98043.98;;;5.87;94.22
28027;BME280;15344;52.342;-1.290;2023-03-14T04:31:34;98048.18;;;6.50;94.18
28027;BME280;15344;52.342;-1.290;2023-03-14T04:33:59;98048.87;;;7.00;92.67
28027;BME280;15344;52.342;-1.290;2023-03-14T04:36:25;98059.30;;;6.05;100.00
28027;BME280;15344;52.342;-1.290;2023-03-14T04:38:50;98068.07;;;6.05;99.60
28027;BME280;15344;52.342;-1.290;2023-03-14T04:41:16;98069.88;;;5.86;100.00
28027;BME280;15344;52.342;-1.290;2023-03-14T04:43:41;98076.70;;;5.86;100.00
28027;BME280;15344;52.342;-1.290;2023-03-14T04:46:07;98081.25;;;5.99;100.00
28027;BME280;15344;52.342;-1.290;2023-03-14T04:48:32;98093.71;;;5.91;100.00
28027;BME280;15344;52.342;-1.290;2023-03-14T04:50:58;98101.38;;;5.15;100.00
28027;BME280;15344;52.342;-1.290;2023-03-14T04:53:24;98107.15;;;6.12;100.00
28027;BME280;15344;52.342;-1.290;2023-03-14T04:55:49;98114.70;;;5.64;100.00
28027;BME280;15344;52.342;-1.290;2023-03-14T04:58:15;98118.40;;;6.86;100.00
28027;BME280;15344;52.342;-1.290;2023-03-14T05:00:40;98128.85;;;4.85;100.00
28027;BME280;15344;52.342;-1.290;2023-03-14T05:03:06;98137.22;;;5.69;100.00
28027;BME280;15344;52.342;-1.290;2023-03-14T05:05:31;98143.66;;;6.70;100.00
28027;BME280;15344;52.342;-1.290;2023-03-14T05:07:57;98151.53;;;5.71;100.00
28027;BME280;15344;52.342;-1.290;2023-03-14T05:10:22;98159.19;;;6.38;100.00
28027;BME280;15344;52.342;-1.290;2023-03-14T05:12:48;98170.13;;;5.89;100.00
28027;BME280;15344;52.342;-1.290;2023-03-14T05:15:13;98178.87;;;6.99;100.00
28027;BME280;15344;52.342;-1.290;2023-03-14T05:17:39;98186.87;;;6.13;100.00
28027;BME280;15344;52.342;-1.290;2023-03-14T05:20:06;98193.41;;;6.57;100.00
28027;BME280;15344;52.342;-1.290;2023-03-14T05:22:30;98203.65;;;3.91;100.00
28027;BME280;15344;52.342;-1.290;2023-03-14T05:24:55;98210.22;;;5.06;100.00
28027;BME280;15344;52.342;-1.290;2023-03-14T05:27:21;98220.01;;;5.00;100.00
28027;BME280;15344;52.342;-1.290;2023-03-14T05:29:47;98225.43;;;4.76;100.00
28027;BME280;15344;52.342;-1.290;2023-03-14T05:32:12;98234.32;;;4.90;100.00
28027;BME280;15344;52.342;-1.290;2023-03-14T05:34:38;98240.84;;;5.12;100.00
28027;BME280;15344;52.342;-1.290;2023-03-14T05:37:03;98249.44;;;4.92;100.00
28027;BME280;15344;52.342;-1.290;2023-03-14T05:39:29;98253.49;;;4.20;100.00
28027;BME280;15344;52.342;-1.290;2023-03-14T05:41:55;98266.03;;;4.86;100.00
28027;BME280;15344;52.342;-1.290;2023-03-14T05:44:20;98272.48;;;4.55;100.00
28027;BME280;15344;52.342;-1.290;2023-03-14T05:46:46;98279.26;;;3.83;100.00
28027;BME280;15344;52.342;-1.290;2023-03-14T05:49:11;98286.20;;;4.74;100.00
28027;BME280;15344;52.342;-1.290;2023-03-14T05:51:37;98297.69;;;3.76;100.00
28027;BME280;15344;52.342;-1.290;2023-03-14T05:54:02;98310.35;;;4.84;100.00
28027;BME280;15344;52.342;-1.290;2023-03-14T05:56:28;98323.80;;;5.61;100.00
28027;BME280;15344;52.342;-1.290;2023-03-14T05:58:53;98333.81;;;3.91;100.00
28027;BME280;15344;52.342;-1.290;2023-03-14T06:01:19;98347.08;;;3.01;100.00
28027;BME280;15344;52.342;-1.290;2023-03-14T06:03:45;98359.44;;;2.88;100.00
28027;BME280;15344;52.342;-1.290;2023-03-14T06:06:10;98371.61;;;3.40;100.00
28027;BME280;15344;52.342;-1.290;2023-03-14T06:08:35;98382.30;;;2.76;100.00
28027;BME280;15344;52.342;-1.290;2023-03-14T06:11:03;98395.82;;;1.73;100.00
28027;BME280;15344;52.342;-1.290;2023-03-14T06:13:27;98390.47;;;3.41;100.00
28027;BME280;15344;52.342;-1.290;2023-03-14T06:15:52;98400.83;;;2.15;100.00
28027;BME280;15344;52.342;-1.290;2023-03-14T06:18:18;98410.50;;;3.76;100.00
28027;BME280;15344;52.342;-1.290;2023-03-14T06:20:43;98414.19;;;5.13;100.00
28027;BME280;15344;52.342;-1.290;2023-03-14T06:23:09;98424.81;;;4.46;100.00
28027;BME280;15344;52.342;-1.290;2023-03-14T06:25:35;98431.12;;;5.51;100.00
28027;BME280;15344;52.342;-1.290;2023-03-14T06:28:01;98447.01;;;4.86;100.00
28027;BME280;15344;52.342;-1.290;2023-03-14T06:30:26;98455.70;;;3.84;100.00
28027;BME280;15344;52.342;-1.290;2023-03-14T06:32:51;98460.65;;;5.35;100.00
28027;BME280;15344;52.342;-1.290;2023-03-14T06:35:17;98471.62;;;4.91;100.00
28027;BME280;15344;52.342;-1.290;2023-03-14T06:37:43;98478.60;;;3.57;100.00
28027;BME280;15344;52.342;-1.290;2023-03-14T06:40:09;98485.57;;;3.39;100.00
28027;BME280;15344;52.342;-1.290;2023-03-14T06:42:34;98491.58;;;3.50;100.00
28027;BME280;15344;52.342;-1.290;2023-03-14T06:44:59;98503.85;;;4.33;100.00
28027;BME280;15344;52.342;-1.290;2023-03-14T06:47:25;98514.75;;;5.00;100.00
28027;BME280;15344;52.342;-1.290;2023-03-14T06:49:51;98519.18;;;5.15;100.00
28027;BME280;15344;52.342;-1.290;2023-03-14T06:52:16;98531.14;;;3.34;100.00
28027;BME280;15344;52.342;-1.290;2023-03-14T06:54:42;98544.16;;;3.30;100.00
28027;BME280;15344;52.342;-1.290;2023-03-14T06:57:07;98561.40;;;3.10;100.00
28027;BME280;15344;52.342;-1.290;2023-03-14T06:59:33;98572.84;;;2.92;100.00
28027;BME280;15344;52.342;-1.290;2023-03-14T07:01:58;98586.89;;;2.54;100.00
28027;BME280;15344;52.342;-1.290;2023-03-14T07:04:24;98604.18;;;2.24;100.00
28027;BME280;15344;52.342;-1.290;2023-03-14T07:06:50;98612.84;;;2.75;100.00
28027;BME280;15344;52.342;-1.290;2023-03-14T07:09:16;98622.78;;;3.05;100.00
28027;BME280;15344;52.342;-1.290;2023-03-14T07:11:41;98629.86;;;2.55;100.00
28027;BME280;15344;52.342;-1.290;2023-03-14T07:14:06;98635.19;;;1.92;100.00
28027;BME280;15344;52.342;-1.290;2023-03-14T07:16:32;98640.64;;;2.30;100.00
28027;BME280;15344;52.342;-1.290;2023-03-14T07:18:58;98647.28;;;2.89;100.00
28027;BME280;15344;52.342;-1.290;2023-03-14T07:21:23;98660.43;;;3.30;100.00
28027;BME280;15344;52.342;-1.290;2023-03-14T07:23:49;98673.01;;;3.53;100.00
28027;BME280;15344;52.342;-1.290;2023-03-14T07:26:15;98682.05;;;3.93;100.00
28027;BME280;15344;52.342;-1.290;2023-03-14T07:28:40;98689.70;;;1.90;100.00
28027;BME280;15344;52.342;-1.290;2023-03-14T07:31:06;98697.38;;;2.78;100.00
28027;BME280;15344;52.342;-1.290;2023-03-14T07:33:31;98699.78;;;3.20;100.00
28027;BME280;15344;52.342;-1.290;2023-03-14T07:35:57;98709.40;;;3.88;100.00
28027;BME280;15344;52.342;-1.290;2023-03-14T07:38:23;98719.40;;;2.70;100.00
28027;BME280;15344;52.342;-1.290;2023-03-14T07:40:48;98732.09;;;2.77;100.00
28027;BME280;15344;52.342;-1.290;2023-03-14T07:43:14;98741.02;;;3.61;100.00
28027;BME280;15344;52.342;-1.290;2023-03-14T07:45:39;98744.48;;;5.04;100.00
28027;BME280;15344;52.342;-1.290;2023-03-14T07:48:05;98759.61;;;5.07;100.00
28027;BME280;15344;52.342;-1.290;2023-03-14T07:50:31;98767.44;;;4.78;100.00
28027;BME280;15344;52.342;-1.290;2023-03-14T07:52:56;98775.98;;;3.45;100.00
28027;BME280;15344;52.342;-1.290;2023-03-14T07:55:22;98788.47;;;4.14;100.00
28027;BME280;15344;52.342;-1.290;2023-03-14T07:57:48;98793.37;;;3.91;100.00
28027;BME280;15344;52.342;-1.290;2023-03-14T08:00:14;98797.97;;;4.79;100.00
28027;BME280;15344;52.342;-1.290;2023-03-14T08:02:38;98802.10;;;5.51;100.00
28027;BME280;15344;52.342;-1.290;2023-03-14T08:05:05;98807.89;;;4.54;100.00
28027;BME280;15344;52.342;-1.290;2023-03-14T08:07:30;98820.55;;;4.50;100.00
28027;BME280;15344;52.342;-1.290;2023-03-14T08:09:55;98826.13;;;4.75;100.00
28027;BME280;15344;52.342;-1.290;2023-03-14T08:12:21;98822.33;;;4.73;100.00
28027;BME280;15344;52.342;-1.290;2023-03-14T08:14:47;98836.55;;;7.06;100.00
28027;BME280;15344;52.342;-1.290;2023-03-14T08:17:12;98843.93;;;6.52;100.00
28027;BME280;15344;52.342;-1.290;2023-03-14T08:19:37;98854.85;;;6.48;100.00
28027;BME280;15344;52.342;-1.290;2023-03-14T08:22:03;98866.78;;;5.06;100.00
28027;BME280;15344;52.342;-1.290;2023-03-14T08:24:30;98870.64;;;6.00;100.00
28027;BME280;15344;52.342;-1.290;2023-03-14T08:26:54;98876.75;;;6.19;100.00
28027;BME280;15344;52.342;-1.290;2023-03-14T08:29:20;98880.73;;;5.59;100.00
28027;BME280;15344;52.342;-1.290;2023-03-14T08:31:45;98889.95;;;6.22;100.00
28027;BME280;15344;52.342;-1.290;2023-03-14T08:34:11;98904.24;;;5.25;100.00
28027;BME280;15344;52.342;-1.290;2023-03-14T08:36:37;98913.33;;;4.62;100.00
28027;BME280;15344;52.342;-1.290;2023-03-14T08:39:02;98917.79;;;6.89;100.00
28027;BME280;15344;52.342;-1.290;2023-03-14T08:41:28;98918.05;;;6.05;100.00
28027;BME280;15344;52.342;-1.290;2023-03-14T08:43:53;98928.20;;;6.19;100.00
28027;BME280;15344;52.342;-1.290;2023-03-14T08:46:19;98931.51;;;7.25;100.00
28027;BME280;15344;52.342;-1.290;2023-03-14T08:48:44;98938.55;;;8.64;100.00
28027;BME280;15344;52.342;-1.290;2023-03-14T08:51:11;98943.56;;;8.85;100.00
28027;BME280;15344;52.342;-1.290;2023-03-14T08:53:36;98952.35;;;9.67;95.22
28027;BME280;15344;52.342;-1.290;2023-03-14T08:56:00;98961.48;;;10.48;93.38
28027;BME280;15344;52.342;-1.290;2023-03-14T08:58:26;98967.21;;;7.96;96.85
28027;BME280;15344;52.342;-1.290;2023-03-14T09:00:51;98969.25;;;8.60;97.73
28027;BME280;15344;52.342;-1.290;2023-03-14T09:03:17;98980.10;;;7.20;100.00
28027;BME280;15344;52.342;-1.290;2023-03-14T09:05:42;98981.69;;;7.78;100.00
28027;BME280;15344;52.342;-1.290;2023-03-14T09:08:08;98987.28;;;8.00;100.00
28027;BME280;15344;52.342;-1.290;2023-03-14T09:10:33;98992.56;;;9.15;100.00
28027;BME280;15344;52.342;-1.290;2023-03-14T09:12:58;98998.28;;;8.13;100.00
28027;BME280;15344;52.342;-1.290;2023-03-14T09:15:24;98998.73;;;9.41;96.28
28027;BME280;15344;52.342;-1.290;2023-03-14T09:17:49;99007.74;;;9.80;94.07
28027;BME280;15344;52.342;-1.290;2023-03-14T09:20:15;99014.15;;;9.19;100.00
28027;BME280;15344;52.342;-1.290;2023-03-14T09:22:40;99022.32;;;9.59;96.81
28027;BME280;15344;52.342;-1.290;2023-03-14T09:25:06;99033.02;;;10.28;91.62
28027;BME280;15344;52.342;-1.290;2023-03-14T09:27:31;99034.58;;;9.13;93.21
28027;BME280;15344;52.342;-1.290;2023-03-14T09:29:56;99037.98;;;9.46;91.38
28027;BME280;15344;52.342;-1.290;2023-03-14T09:32:21;99044.33;;;9.77;92.57
28027;BME280;15344;52.342;-1.290;2023-03-14T09:34:46;99051.15;;;10.16;94.53
28027;BME280;15344;52.342;-1.290;2023-03-14T09:37:12;99058.00;;;10.14;87.69
28027;BME280;15344;52.342;-1.290;2023-03-14T09:39:37;99071.57;;;8.26;89.03
28027;BME280;15344;52.342;-1.290;2023-03-14T09:42:06;99079.73;;;9.95;89.82
28027;BME280;15344;52.342;-1.290;2023-03-14T09:44:30;99082.54;;;9.74;87.08
28027;BME280;15344;52.342;-1.290;2023-03-14T09:46:54;99088.35;;;10.28;87.40
28027;BME280;15344;52.342;-1.290;2023-03-14T09:49:21;99098.28;;;7.76;92.08
28027;BME280;15344;52.342;-1.290;2023-03-14T09:51:45;99106.11;;;8.77;94.56
28027;BME280;15344;52.342;-1.290;2023-03-14T09:54:17;99102.10;;;9.35;95.51
28027;BME280;15344;52.342;-1.290;2023-03-14T09:56:35;99114.09;;;8.00;97.30
28027;BME280;15344;52.342;-1.290;2023-03-14T09:59:02;99119.65;;;8.73;100.00
28027;BME280;15344;52.342;-1.290;2023-03-14T10:01:27;99123.88;;;10.00;93.58
28027;BME280;15344;52.342;-1.290;2023-03-14T10:03:51;99132.76;;;9.14;88.92
28027;BME280;15344;52.342;-1.290;2023-03-14T10:06:16;99140.45;;;9.57;93.97
28027;BME280;15344;52.342;-1.290;2023-03-14T10:08:42;99147.45;;;8.88;93.68
28027;BME280;15344;52.342;-1.290;2023-03-14T10:11:13;99149.42;;;9.57;91.35
28027;BME280;15344;52.342;-1.290;2023-03-14T10:13:32;99159.96;;;8.66;94.35
28027;BME280;15344;52.342;-1.290;2023-03-14T10:16:01;99157.64;;;9.81;97.12
28027;BME280;15344;52.342;-1.290;2023-03-14T10:18:24;99171.42;;;8.38;92.88
28027;BME280;15344;52.342;-1.290;2023-03-14T10:20:50;99179.44;;;8.77;89.13
28027;BME280;15344;52.342;-1.290;2023-03-14T10:23:23;99168.74;;;9.11;92.63
28027;BME280;15344;52.342;-1.290;2023-03-14T10:25:41;99171.04;;;9.79;87.08
28027;BME280;15344;52.342;-1.290;2023-03-14T10:28:10;99182.37;;;10.73;82.45
28027;BME280;15344;52.342;-1.290;2023-03-14T10:30:38;99187.94;;;11.82;86.68
28027;BME280;15344;52.342;-1.290;2023-03-14T10:32:55;99189.08;;;10.43;77.87
28027;BME280;15344;52.342;-1.290;2023-03-14T10:35:22;99195.13;;;10.70;76.38
28027;BME280;15344;52.342;-1.290;2023-03-14T10:37:51;99194.56;;;12.51;72.71
28027;BME280;15344;52.342;-1.290;2023-03-14T10:40:13;99203.36;;;11.07;75.46
28027;BME280;15344;52.342;-1.290;2023-03-14T10:42:41;99207.27;;;10.49;75.70
28027;BME280;15344;52.342;-1.290;2023-03-14T10:45:04;99211.52;;;10.55;78.66
28027;BME280;15344;52.342;-1.290;2023-03-14T10:47:28;99221.79;;;11.47;76.17
28027;BME280;15344;52.342;-1.290;2023-03-14T10:49:52;99221.30;;;12.71;78.41
28027;BME280;15344;52.342;-1.290;2023-03-14T10:52:22;99230.67;;;11.56;73.13
28027;BME280;15344;52.342;-1.290;2023-03-14T10:54:47;99235.96;;;12.02;71.50
28027;BME280;15344;52.342;-1.290;2023-03-14T10:57:11;99237.30;;;12.80;71.30
28027;BME280;15344;52.342;-1.290;2023-03-14T10:59:35;99249.39;;;11.26;67.15
28027;BME280;15344;52.342;-1.290;2023-03-14T11:02:02;99253.95;;;11.53;68.84
28027;BME280;15344;52.342;-1.290;2023-03-14T11:06:55;99261.71;;;12.47;68.17
28027;BME280;15344;52.342;-1.290;2023-03-14T11:09:18;99274.15;;;9.34;74.88
28027;BME280;15344;52.342;-1.290;2023-03-14T11:11:46;99285.39;;;11.36;68.17
28027;BME280;15344;52.342;-1.290;2023-03-14T11:14:16;99286.73;;;11.19;71.62
28027;BME280;15344;52.342;-1.290;2023-03-14T11:16:37;99283.30;;;10.13;69.64
28027;BME280;15344;52.342;-1.290;2023-03-14T11:19:08;99283.61;;;9.48;76.89
28027;BME280;15344;52.342;-1.290;2023-03-14T11:21:24;99295.47;;;7.19;78.09
28027;BME280;15344;52.342;-1.290;2023-03-14T11:23:53;99292.95;;;8.43;75.94
28027;BME280;15344;52.342;-1.290;2023-03-14T11:26:23;99298.16;;;8.91;70.53
28027;BME280;15344;52.342;-1.290;2023-03-14T11:28:39;99297.74;;;9.60;79.73
28027;BME280;15344;52.342;-1.290;2023-03-14T11:31:10;99301.40;;;8.37;75.91
28027;BME280;15344;52.342;-1.290;2023-03-14T11:33:32;99297.05;;;9.88;75.34
28027;BME280;15344;52.342;-1.290;2023-03-14T11:35:59;99297.22;;;8.90;77.38
28027;BME280;15344;52.342;-1.290;2023-03-14T11:38:29;99306.00;;;10.04;74.27
28027;BME280;15344;52.342;-1.290;2023-03-14T11:40:45;99302.04;;;8.80;68.65
28027;BME280;15344;52.342;-1.290;2023-03-14T11:43:17;99306.38;;;9.83;66.33
28027;BME280;15344;52.342;-1.290;2023-03-14T11:45:38;99309.12;;;9.98;68.01
28027;BME280;15344;52.342;-1.290;2023-03-14T11:48:10;99315.71;;;8.34;69.91
28027;BME280;15344;52.342;-1.290;2023-03-14T11:50:29;99321.91;;;9.96;72.62
28027;BME280;15344;52.342;-1.290;2023-03-14T11:52:54;99312.60;;;10.20;69.01
28027;BME280;15344;52.342;-1.290;2023-03-14T11:55:21;99315.26;;;11.07;62.31
28027;BME280;15344;52.342;-1.290;2023-03-14T11:57:43;99313.34;;;10.32;63.81
28027;BME280;15344;52.342;-1.290;2023-03-14T12:00:16;99313.77;;;10.87;62.38
28027;BME280;15344;52.342;-1.290;2023-03-14T12:02:40;99316.71;;;10.61;58.39
28027;BME280;15344;52.342;-1.290;2023-03-14T12:07:29;99327.38;;;11.10;62.33
28027;BME280;15344;52.342;-1.290;2023-03-14T12:09:51;99324.87;;;10.87;65.43
28027;BME280;15344;52.342;-1.290;2023-03-14T12:12:19;99329.05;;;10.98;60.57
28027;BME280;15344;52.342;-1.290;2023-03-14T12:14:45;99330.23;;;10.77;59.81
28027;BME280;15344;52.342;-1.290;2023-03-14T12:17:07;99334.52;;;10.33;62.37
28027;BME280;15344;52.342;-1.290;2023-03-14T12:19:33;99337.75;;;11.31;60.56
28027;BME280;15344;52.342;-1.290;2023-03-14T12:21:59;99334.38;;;10.48;60.97
28027;BME280;15344;52.342;-1.290;2023-03-14T12:24:24;99342.31;;;10.31;62.36
28027;BME280;15344;52.342;-1.290;2023-03-14T12:26:53;99344.82;;;11.42;61.90
28027;BME280;15344;52.342;-1.290;2023-03-14T12:29:16;99347.07;;;10.80;61.92
28027;BME280;15344;52.342;-1.290;2023-03-14T12:31:43;99345.13;;;11.25;60.46
28027;BME280;15344;52.342;-1.290;2023-03-14T12:34:04;99348.59;;;11.20;58.94
28027;BME280;15344;52.342;-1.290;2023-03-14T12:39:00;99356.12;;;11.24;57.08
28027;BME280;15344;52.342;-1.290;2023-03-14T12:41:22;99349.12;;;10.55;57.59
28027;BME280;15344;52.342;-1.290;2023-03-14T12:43:44;99352.12;;;10.82;59.06
28027;BME280;15344;52.342;-1.290;2023-03-14T12:46:18;99358.05;;;10.42;64.17
28027;BME280;15344;52.342;-1.290;2023-03-14T12:48:38;99355.57;;;10.47;58.92
28027;BME280;15344;52.342;-1.290;2023-03-14T12:51:03;99358.01;;;10.76;58.33